Time;durP1;ratioP1;P1;durP2;ratioP2;P2;SDS_P1;SDS_P2;PMS_P1;PMS_P2;Temp;Humidity;BMP_temperature;BMP_pressure;BME280_temperature;BME280_humidity;BME280_pressure;Samples;Min_cycle;Max_cycle;Signal;HPM_P1;HPM_P2
2022/05/13 00:01:32;;;;;;;8.40;5.28;;;;;;;18.63;74.35;98783.91;4997685;28;20038;-67
2022/05/13 00:03:58;;;;;;;8.27;4.78;;;;;;;18.73;74.12;98788.03;5007111;28;20034;-64
2022/05/13 00:06:23;;;;;;;8.25;5.30;;;;;;;18.72;74.17;98795.13;5005848;28;20033;-66
2022/05/13 00:08:49;;;;;;;8.05;4.70;;;;;;;18.65;74.17;98788.97;4980863;28;20034;-66
2022/05/13 00:11:14;;;;;;;8.07;5.25;;;;;;;18.67;73.79;98791.44;4996362;28;20027;-67
2022/05/13 00:13:40;;;;;;;8.40;5.05;;;;;;;18.49;74.28;98779.56;5009496;28;20093;-63
2022/05/13 00:16:06;;;;;;;9.48;5.05;;;;;;;18.37;74.77;98778.47;4971990;28;20429;-66
2022/05/13 00:18:32;;;;;;;7.40;4.97;;;;;;;18.25;74.51;98747.41;4999229;28;20026;-63
2022/05/13 00:20:58;;;;;;;7.88;4.70;;;;;;;18.38;74.54;98764.28;4958666;28;20045;-64
2022/05/13 00:23:24;;;;;;;13.02;4.60;;;;;;;18.47;74.35;98763.13;4979243;28;20117;-65
2022/05/13 00:25:50;;;;;;;7.93;4.55;;;;;;;18.34;74.43;98742.00;4982163;28;20176;-65
2022/05/13 00:28:15;;;;;;;9.77;4.97;;;;;;;18.41;74.48;98745.47;4982658;28;20053;-66
2022/05/13 00:30:45;;;;;;;7.88;4.30;;;;;;;18.28;74.60;98717.25;4981093;28;20464;-63
2022/05/13 00:33:10;;;;;;;8.02;4.40;;;;;;;18.07;75.56;98731.28;4966628;28;20058;-65
2022/05/13 00:35:37;;;;;;;9.30;4.80;;;;;;;18.21;75.34;98732.97;5014621;28;20057;-66
2022/05/13 00:38:02;;;;;;;8.30;4.55;;;;;;;18.11;75.82;98731.69;4991052;28;20122;-70
2022/05/13 00:40:28;;;;;;;12.35;5.35;;;;;;;18.01;75.67;98710.97;5012703;28;20117;-64
2022/05/13 00:42:59;;;;;;;7.22;4.53;;;;;;;18.12;75.94;98743.84;5013470;28;20350;-63
2022/05/13 00:45:24;;;;;;;8.98;4.85;;;;;;;18.12;75.72;98742.03;4979725;28;20069;-64
2022/05/13 00:47:49;;;;;;;8.57;5.13;;;;;;;18.08;75.85;98748.66;4981964;28;20112;-63
2022/05/13 00:50:15;;;;;;;8.43;4.47;;;;;;;18.11;75.98;98758.81;4982862;28;20540;-64
2022/05/13 00:52:43;;;;;;;8.50;4.97;;;;;;;18.02;76.46;98758.13;5013253;28;20042;-62
2022/05/13 00:55:11;;;;;;;8.52;5.32;;;;;;;18.07;76.22;98757.59;4983460;28;20034;-62
2022/05/13 00:57:37;;;;;;;9.02;5.13;;;;;;;17.85;76.84;98740.97;4981254;28;20054;-65
2022/05/13 01:00:11;;;;;;;7.53;4.63;;;;;;;17.98;76.91;98763.94;4959936;28;20512;-66
2022/05/13 01:02:36;;;;;;;7.45;4.85;;;;;;;17.90;77.46;98770.16;4981686;28;20133;-66
2022/05/13 01:05:05;;;;;;;8.55;5.18;;;;;;;17.66;77.26;98730.06;4977301;28;20125;-62
2022/05/13 01:07:32;;;;;;;7.35;4.88;;;;;;;17.77;77.83;98768.19;4995735;28;20037;-68
2022/05/13 01:09:59;;;;;;;9.93;5.22;;;;;;;17.70;77.83;98766.50;4966505;28;20096;-63
2022/05/13 01:12:29;;;;;;;7.95;4.80;;;;;;;17.78;77.56;98753.22;4976153;28;20042;-65
2022/05/13 01:15:16;;;;;;;8.02;5.28;;;;;;;17.79;77.68;98757.47;4971817;28;20031;-63
2022/05/13 01:20:30;;;;;;;8.60;5.22;;;;;;;17.83;77.88;98749.03;5008956;28;20053;-63
2022/05/13 01:23:00;;;;;;;7.63;4.40;;;;;;;17.78;78.07;98745.31;4953568;28;20247;-65
2022/05/13 01:25:27;;;;;;;9.80;5.07;;;;;;;17.82;78.04;98750.03;4973896;28;20042;-68
2022/05/13 01:27:56;;;;;;;9.07;5.03;;;;;;;17.72;77.85;98733.75;4961814;28;20027;-65
2022/05/13 01:30:27;;;;;;;8.60;5.07;;;;;;;17.72;78.41;98736.38;4990354;28;20034;-64
2022/05/13 01:32:54;;;;;;;10.65;5.70;;;;;;;17.79;77.73;98739.88;4977636;28;20037;-65
2022/05/13 01:35:20;;;;;;;9.30;5.50;;;;;;;17.74;77.83;98730.94;4951467;28;20044;-64
2022/05/13 01:37:45;;;;;;;11.63;5.30;;;;;;;17.77;77.49;98734.00;5007333;28;20026;-64
2022/05/13 01:40:12;;;;;;;9.45;5.57;;;;;;;17.72;77.99;98725.84;4980274;28;20031;-64
2022/05/13 01:42:37;;;;;;;7.28;5.05;;;;;;;17.62;78.16;98726.19;4998189;28;20018;-66
2022/05/13 01:45:04;;;;;;;7.93;5.03;;;;;;;17.62;78.44;98733.25;4978906;28;20049;-68
2022/05/13 01:47:30;;;;;;;7.25;5.07;;;;;;;17.59;78.22;98726.53;4992518;28;20500;-68
2022/05/13 01:49:56;;;;;;;8.38;5.55;;;;;;;17.24;78.66;98684.34;5015156;28;20034;-62
2022/05/13 01:52:22;;;;;;;9.70;5.28;;;;;;;17.48;79.27;98725.22;4994543;28;20121;-64
2022/05/13 01:54:47;;;;;;;8.68;5.65;;;;;;;17.54;78.80;98726.31;5013444;28;20029;-67
2022/05/13 01:57:13;;;;;;;9.88;5.03;;;;;;;17.49;79.07;98728.69;4997080;28;20022;-69
2022/05/13 01:59:38;;;;;;;8.40;5.10;;;;;;;17.54;78.70;98726.31;4980840;28;20034;-67
2022/05/13 02:02:04;;;;;;;8.82;4.72;;;;;;;17.53;78.90;98732.56;4970623;28;20465;-64
2022/05/13 02:04:29;;;;;;;8.13;5.38;;;;;;;17.26;78.99;98698.09;4999158;28;20077;-63
2022/05/13 02:06:55;;;;;;;10.15;5.65;;;;;;;17.40;79.13;98730.59;4995869;28;20500;-67
2022/05/13 02:09:20;;;;;;;9.35;6.07;;;;;;;17.35;80.00;98737.41;4982109;28;20036;-65
2022/05/13 02:11:46;;;;;;;8.63;5.68;;;;;;;17.37;79.45;98736.22;4991224;28;20033;-64
2022/05/13 02:14:16;;;;;;;10.90;5.63;;;;;;;17.14;80.01;98690.88;5013271;28;20041;-69
2022/05/13 02:16:41;;;;;;;9.60;4.90;;;;;;;17.30;79.58;98714.31;4961059;28;20027;-63
2022/05/13 02:19:07;;;;;;;7.85;5.22;;;;;;;17.15;80.07;98698.59;4981800;28;20465;-62
2022/05/13 02:21:33;;;;;;;8.90;5.78;;;;;;;17.17;80.37;98709.72;4981920;28;20034;-65
2022/05/13 02:23:58;;;;;;;9.27;5.43;;;;;;;17.29;80.13;98712.69;4979238;28;20054;-65
2022/05/13 02:26:23;;;;;;;9.10;5.97;;;;;;;17.37;80.00;98709.13;4981314;28;20744;-64
2022/05/13 02:28:49;;;;;;;8.75;5.35;;;;;;;17.28;79.92;98698.72;5008171;28;20047;-63
2022/05/13 02:31:15;;;;;;;8.27;5.93;;;;;;;17.26;80.11;98705.19;4977832;28;20018;-63
2022/05/13 02:33:41;;;;;;;7.80;5.68;;;;;;;17.12;80.59;98711.28;5008899;28;20048;-63
2022/05/13 02:36:07;;;;;;;10.07;6.60;;;;;;;17.12;80.66;98712.06;4960987;28;20097;-66
2022/05/13 02:38:33;;;;;;;10.80;6.28;;;;;;;17.12;80.68;98713.91;4996966;28;20030;-63
2022/05/13 02:41:14;;;;;;;9.57;5.68;;;;;;;16.88;81.48;98695.66;4953424;28;20039;-62
2022/05/13 02:43:45;;;;;;;8.55;5.28;;;;;;;17.05;80.95;98706.75;4988247;28;20030;-64
2022/05/13 02:46:12;;;;;;;10.63;6.47;;;;;;;17.06;81.02;98708.38;4981225;28;20072;-66
2022/05/13 02:48:38;;;;;;;10.75;5.68;;;;;;;17.10;81.01;98706.19;4951603;28;20030;-64
2022/05/13 02:51:03;;;;;;;10.93;5.55;;;;;;;16.89;81.47;98704.34;4979807;28;20022;-64
2022/05/13 02:53:29;;;;;;;10.13;5.50;;;;;;;17.06;81.19;98715.44;5011568;28;20751;-63
2022/05/13 02:55:54;;;;;;;9.60;6.10;;;;;;;17.08;81.12;98719.53;4977937;28;20655;-63
2022/05/13 02:58:19;;;;;;;9.32;5.63;;;;;;;17.02;81.11;98717.63;4980591;28;20038;-64
2022/05/13 03:00:45;;;;;;;9.18;5.65;;;;;;;16.76;81.59;98689.22;4982653;28;20129;-65
2022/05/13 03:03:12;;;;;;;10.10;5.65;;;;;;;16.79;81.56;98683.56;4953983;28;20042;-67
2022/05/13 03:05:38;;;;;;;9.73;5.63;;;;;;;16.98;81.97;98724.25;4982527;28;20027;-63
2022/05/13 03:08:05;;;;;;;7.70;5.20;;;;;;;16.79;82.48;98712.44;4996195;28;20520;-65
2022/05/13 03:10:32;;;;;;;10.88;6.13;;;;;;;16.65;81.73;98677.34;4989653;28;20066;-67
2022/05/13 03:12:58;;;;;;;10.95;6.45;;;;;;;16.99;81.36;98718.00;4962836;28;20034;-63
2022/05/13 03:15:24;;;;;;;9.18;6.53;;;;;;;16.76;80.73;98675.28;4983357;28;20088;-64
2022/05/13 03:17:50;;;;;;;11.95;6.25;;;;;;;16.87;81.41;98712.41;5001547;28;20038;-64
2022/05/13 03:20:17;;;;;;;11.10;6.40;;;;;;;16.84;81.91;98717.19;4984157;28;20041;-65
2022/05/13 03:22:44;;;;;;;9.57;6.20;;;;;;;16.64;82.01;98683.59;5001737;28;20018;-63
2022/05/13 03:25:09;;;;;;;10.95;5.93;;;;;;;16.88;81.95;98705.31;5008716;28;20443;-68
2022/05/13 03:27:35;;;;;;;10.52;6.25;;;;;;;16.82;81.89;98713.91;4976258;28;20677;-64
2022/05/13 03:30:00;;;;;;;9.40;6.05;;;;;;;16.63;81.66;98675.88;4965425;28;20030;-65
2022/05/13 03:32:26;;;;;;;9.85;6.50;;;;;;;16.85;81.55;98721.47;4985213;28;20517;-66
2022/05/13 03:34:51;;;;;;;10.65;6.47;;;;;;;16.93;81.56;98718.72;4964598;28;20090;-63
2022/05/13 03:37:16;;;;;;;10.30;6.05;;;;;;;16.72;81.03;98683.50;4975529;28;20042;-64
2022/05/13 03:39:42;;;;;;;11.10;6.82;;;;;;;16.91;81.28;98718.09;4968616;28;20470;-66
2022/05/13 03:42:09;;;;;;;9.93;6.05;;;;;;;16.88;81.40;98716.66;4991541;28;20374;-64
2022/05/13 03:44:36;;;;;;;9.15;5.97;;;;;;;16.82;81.47;98714.72;4974138;28;20026;-65
2022/05/13 03:47:03;;;;;;;9.25;6.10;;;;;;;16.79;82.02;98714.28;5002800;28;20055;-63
2022/05/13 03:49:28;;;;;;;10.70;5.75;;;;;;;16.76;82.59;98719.91;4989563;28;20031;-66
2022/05/13 03:51:54;;;;;;;10.13;6.32;;;;;;;16.82;83.06;98713.91;4965207;28;20432;-61
2022/05/13 03:54:19;;;;;;;10.45;6.30;;;;;;;16.75;82.73;98713.00;5000531;28;20673;-64
2022/05/13 03:56:45;;;;;;;11.50;6.50;;;;;;;16.76;82.51;98712.03;4985674;28;20889;-64
2022/05/13 03:59:10;;;;;;;9.65;6.03;;;;;;;16.47;82.91;98676.91;5001871;28;20473;-64
2022/05/13 04:01:35;;;;;;;9.85;5.97;;;;;;;16.67;82.90;98704.22;4986926;28;20030;-66
2022/05/13 04:04:01;;;;;;;11.48;6.00;;;;;;;16.68;83.00;98715.53;5001202;28;20073;-66
2022/05/13 04:09:10;;;;;;;9.95;6.25;;;;;;;16.78;82.73;98720.53;4977801;28;20049;-64
2022/05/13 04:11:38;;;;;;;10.90;6.80;;;;;;;16.79;82.50;98720.31;4979598;28;20478;-64
2022/05/13 04:16:50;;;;;;;9.65;6.00;;;;;;;16.48;83.23;98691.63;4986288;28;20041;-62
2022/05/13 04:19:16;;;;;;;11.20;6.57;;;;;;;16.51;83.37;98704.41;4981709;28;20026;-63
2022/05/13 04:21:42;;;;;;;9.10;6.45;;;;;;;16.78;82.60;98725.78;4963904;28;20039;-64
2022/05/13 04:24:10;;;;;;;9.48;6.32;;;;;;;16.63;82.67;98695.09;4963038;28;20636;-65
2022/05/13 04:26:36;;;;;;;9.65;5.90;;;;;;;16.75;83.01;98726.94;4969893;28;20508;-66
2022/05/13 04:29:02;;;;;;;10.05;6.18;;;;;;;16.46;83.21;98696.25;5010114;28;20028;-63
2022/05/13 04:31:33;;;;;;;8.70;6.45;;;;;;;16.66;83.02;98730.66;4990309;28;20041;-63
2022/05/13 04:33:59;;;;;;;10.38;6.07;;;;;;;16.58;83.46;98720.25;4986304;28;20718;-66
2022/05/13 04:36:25;;;;;;;10.18;6.55;;;;;;;16.69;83.45;98727.69;4969294;28;20062;-62
2022/05/13 04:38:52;;;;;;;9.75;6.18;;;;;;;16.66;82.95;98707.03;4982001;28;20199;-65
2022/05/13 04:44:02;;;;;;;10.35;6.35;;;;;;;16.69;83.18;98722.44;4978856;28;20105;-66
2022/05/13 04:46:29;;;;;;;9.80;6.60;;;;;;;16.68;83.29;98720.78;4985930;28;20408;-63
2022/05/13 04:48:54;;;;;;;9.95;6.15;;;;;;;16.72;83.33;98736.00;4986811;28;20037;-66
2022/05/13 04:51:20;;;;;;;12.63;6.95;;;;;;;16.50;83.38;98711.47;4972395;28;20034;-63
2022/05/13 04:53:48;;;;;;;12.35;6.78;;;;;;;16.71;83.18;98726.50;4967687;28;20026;-67
2022/05/13 04:56:14;;;;;;;9.93;6.47;;;;;;;16.52;83.29;98698.19;4969325;28;20027;-63
2022/05/13 04:58:41;;;;;;;11.90;7.15;;;;;;;16.70;83.51;98730.13;4973373;28;20128;-64
2022/05/13 05:01:08;;;;;;;9.93;6.28;;;;;;;16.71;83.71;98744.88;4966158;28;20045;-64
2022/05/13 05:03:35;;;;;;;13.20;6.78;;;;;;;16.63;84.09;98746.75;4983381;28;20038;-68
2022/05/13 05:06:01;;;;;;;8.52;5.85;;;;;;;16.57;84.53;98742.25;4983518;28;20042;-65
2022/05/13 05:08:28;;;;;;;19.40;7.40;;;;;;;16.66;84.07;98749.84;4959790;28;20089;-66
2022/05/13 05:10:54;;;;;;;11.10;6.70;;;;;;;16.66;84.07;98738.53;4957601;28;20460;-67
2022/05/13 05:13:34;;;;;;;9.43;5.85;;;;;;;16.73;83.78;98752.56;4974728;28;20022;-65
2022/05/13 05:15:59;;;;;;;12.50;7.05;;;;;;;16.81;83.53;98755.13;4958616;28;20031;-63
2022/05/13 05:18:25;;;;;;;11.20;6.80;;;;;;;16.81;83.09;98759.53;4967963;28;20081;-64
2022/05/13 05:20:51;;;;;;;9.25;6.65;;;;;;;16.71;83.65;98759.81;4986681;28;20385;-66
2022/05/13 05:23:27;;;;;;;10.23;6.47;;;;;;;16.75;83.80;98770.78;4968161;28;20037;-65
2022/05/13 05:25:53;;;;;;;11.68;6.80;;;;;;;16.70;83.66;98772.13;4972489;28;20039;-65
2022/05/13 05:28:19;;;;;;;11.60;7.07;;;;;;;16.69;84.18;98769.69;4962689;28;20026;-69
2022/05/13 05:30:44;;;;;;;13.90;8.05;;;;;;;16.75;83.60;98771.59;4958253;28;20057;-64
2022/05/13 05:33:11;;;;;;;13.90;7.60;;;;;;;16.77;83.73;98772.22;4984584;28;20037;-66
2022/05/13 05:35:37;;;;;;;11.40;7.93;;;;;;;16.77;83.65;98768.78;4982712;28;20026;-65
2022/05/13 05:38:03;;;;;;;12.95;7.28;;;;;;;16.76;83.41;98775.03;4983964;28;20557;-71
2022/05/13 05:40:29;;;;;;;13.18;7.47;;;;;;;16.87;83.15;98775.44;4974757;28;20680;-65
2022/05/13 05:42:54;;;;;;;9.90;7.18;;;;;;;16.73;84.33;98774.38;4968919;28;20623;-65
2022/05/13 05:45:21;;;;;;;10.63;7.18;;;;;;;16.52;83.83;98733.09;5003167;28;20035;-64
2022/05/13 05:47:47;;;;;;;11.07;7.25;;;;;;;16.75;83.94;98776.03;4953060;28;20031;-65
2022/05/13 05:50:16;;;;;;;11.57;7.65;;;;;;;16.77;84.07;98768.78;4983085;28;20370;-68
2022/05/13 05:52:41;;;;;;;12.43;7.95;;;;;;;16.93;83.42;98780.97;4953509;28;20709;-63
2022/05/13 05:58:00;;;;;;;15.45;8.23;;;;;;;17.02;83.24;98775.41;4966968;28;20090;-64
2022/05/13 06:00:27;;;;;;;12.70;7.80;;;;;;;17.03;83.42;98779.69;5001801;28;20037;-68
2022/05/13 06:02:53;;;;;;;12.13;8.00;;;;;;;16.97;82.87;98769.88;4974328;28;20018;-63
2022/05/13 06:05:18;;;;;;;13.43;7.97;;;;;;;17.06;82.63;98779.31;5006156;28;20058;-64
2022/05/13 06:07:45;;;;;;;12.95;7.82;;;;;;;17.13;82.31;98787.28;4961841;28;20540;-67
2022/05/13 06:10:11;;;;;;;12.10;8.10;;;;;;;17.09;82.36;98784.19;4988176;28;20091;-63
2022/05/13 06:12:36;;;;;;;13.07;8.23;;;;;;;16.94;82.21;98753.69;5008168;28;20034;-66
2022/05/13 06:15:02;;;;;;;13.18;7.95;;;;;;;17.18;82.13;98781.50;4966213;28;20492;-64
2022/05/13 06:17:27;;;;;;;12.77;7.90;;;;;;;17.22;82.18;98788.00;4968278;28;20031;-64
2022/05/13 06:19:53;;;;;;;11.95;7.97;;;;;;;17.26;82.31;98789.25;4984260;28;20027;-65
2022/05/13 06:22:18;;;;;;;13.32;7.88;;;;;;;17.28;81.96;98789.88;4974034;28;20019;-67
2022/05/13 06:24:44;;;;;;;11.18;7.93;;;;;;;17.06;81.57;98749.59;4967136;28;20603;-65
2022/05/13 06:27:09;;;;;;;14.25;8.15;;;;;;;17.21;82.61;98789.00;4960802;28;20041;-65
2022/05/13 06:29:36;;;;;;;14.20;9.13;;;;;;;17.19;82.60;98783.91;4959931;28;20022;-66
2022/05/13 06:32:02;;;;;;;15.10;8.13;;;;;;;17.24;82.97;98792.06;4999466;28;20374;-63
2022/05/13 06:34:28;;;;;;;13.23;8.68;;;;;;;17.31;82.44;98779.03;4983194;28;20033;-64
2022/05/13 06:36:53;;;;;;;13.38;7.57;;;;;;;17.37;82.21;98774.84;4985360;28;20023;-67
2022/05/13 06:39:19;;;;;;;12.55;7.95;;;;;;;17.32;82.33;98762.22;4963433;28;20545;-65
2022/05/13 06:41:44;;;;;;;14.13;8.43;;;;;;;17.49;82.08;98778.63;4967852;28;20030;-62
2022/05/13 06:44:10;;;;;;;11.85;8.07;;;;;;;17.58;82.49;98784.59;4982359;28;20023;-63
2022/05/13 06:46:38;;;;;;;13.30;7.95;;;;;;;17.29;82.85;98750.28;4962203;28;20291;-65
2022/05/13 06:49:05;;;;;;;15.25;8.48;;;;;;;17.54;82.14;98773.63;4986225;28;20023;-66
2022/05/13 06:51:31;;;;;;;12.95;7.88;;;;;;;17.52;82.64;98785.31;4984738;28;20022;-63
2022/05/13 06:54:03;;;;;;;13.02;8.77;;;;;;;17.09;83.22;98710.66;5001820;28;20053;-62
2022/05/13 06:56:30;;;;;;;12.45;7.70;;;;;;;17.42;82.82;98789.06;4957444;28;20034;-62
2022/05/13 06:58:56;;;;;;;10.05;7.10;;;;;;;17.34;83.21;98773.41;4986700;28;20030;-66
2022/05/13 07:01:22;;;;;;;13.57;8.02;;;;;;;17.22;83.72;98740.72;5006634;28;20035;-67
2022/05/13 07:03:48;;;;;;;12.70;8.30;;;;;;;17.50;83.34;98769.72;4978492;28;20820;-64
2022/05/13 07:06:14;;;;;;;12.98;7.72;;;;;;;17.37;83.75;98782.72;5009858;28;20027;-66
2022/05/13 07:08:40;;;;;;;14.77;7.72;;;;;;;17.36;83.51;98781.91;4965062;28;20122;-64
2022/05/13 07:11:07;;;;;;;13.52;7.68;;;;;;;17.27;84.12;98772.50;4973575;28;20050;-67
2022/05/13 07:13:33;;;;;;;11.98;8.40;;;;;;;17.27;83.95;98777.75;4973882;28;20023;-65
2022/05/13 07:15:59;;;;;;;14.32;8.00;;;;;;;17.46;83.50;98777.16;4964612;28;20038;-64
2022/05/13 07:18:24;;;;;;;12.25;7.80;;;;;;;17.54;84.55;98778.88;4957127;28;20035;-66
2022/05/13 07:20:50;;;;;;;13.43;7.60;;;;;;;17.60;84.25;98782.59;4974501;28;20053;-63
2022/05/13 07:23:15;;;;;;;11.30;7.47;;;;;;;17.67;84.17;98771.13;4976169;28;20031;-63
2022/05/13 07:25:41;;;;;;;12.18;7.47;;;;;;;17.70;83.53;98775.19;4980793;28;20106;-63
2022/05/13 07:28:06;;;;;;;10.38;7.35;;;;;;;17.72;83.60;98764.50;4968271;28;20475;-64
2022/05/13 07:30:32;;;;;;;10.85;6.63;;;;;;;17.84;82.32;98774.31;4969245;28;20062;-64
2022/05/13 07:32:57;;;;;;;9.18;6.22;;;;;;;17.68;81.88;98737.75;4983473;28;20497;-67
2022/05/13 07:35:23;;;;;;;8.93;6.30;;;;;;;17.91;82.31;98779.69;5004190;28;20054;-65
2022/05/13 07:37:48;;;;;;;9.82;5.80;;;;;;;17.94;82.47;98779.31;4981652;28;20031;-64
2022/05/13 07:42:58;;;;;;;11.18;6.55;;;;;;;18.04;80.85;98785.06;4980534;28;20029;-65
2022/05/13 07:45:23;;;;;;;9.20;5.55;;;;;;;18.15;80.05;98770.59;4974608;28;20035;-67
2022/05/13 07:47:49;;;;;;;10.63;5.32;;;;;;;18.30;78.34;98785.50;4963702;28;20038;-63
2022/05/13 07:50:14;;;;;;;8.13;5.30;;;;;;;18.57;77.60;98782.06;4966105;28;20022;-64
2022/05/13 07:52:41;;;;;;;7.80;5.75;;;;;;;19.16;74.62;98783.41;4965425;28;20031;-64
2022/05/13 07:55:10;;;;;;;8.68;5.63;;;;;;;19.75;71.10;98773.28;4967020;28;20035;-64
2022/05/13 07:57:36;;;;;;;;;;;;;;;20.29;69.47;98774.16;4996723;28;20449;-65
2022/05/13 08:02:48;;;;;;;8.55;5.47;;;;;;;21.22;65.98;98768.72;4992646;28;20115;-63
2022/05/13 08:05:13;;;;;;;8.63;5.63;;;;;;;21.23;64.86;98745.72;4964589;28;20817;-67
2022/05/13 08:07:39;;;;;;;7.20;4.97;;;;;;;21.59;63.96;98766.31;4972976;28;20082;-65
2022/05/13 08:10:06;;;;;;;9.55;6.10;;;;;;;21.77;63.50;98762.16;4969442;28;20027;-63
2022/05/13 08:12:31;;;;;;;10.27;5.70;;;;;;;21.89;62.70;98771.84;4972038;28;20037;-63
2022/05/13 08:14:56;;;;;;;11.13;5.78;;;;;;;22.22;62.06;98759.38;4968719;28;20038;-66
2022/05/13 08:17:22;;;;;;;10.15;6.05;;;;;;;22.25;60.18;98749.16;4978817;28;20027;-65
2022/05/13 08:19:47;;;;;;;11.07;6.50;;;;;;;22.43;60.24;98758.19;4970541;28;20042;-66
2022/05/13 08:22:13;;;;;;;10.57;6.15;;;;;;;22.71;60.93;98760.38;4997280;28;20031;-66
2022/05/13 08:24:38;;;;;;;9.45;6.38;;;;;;;22.72;60.35;98769.94;4986242;28;20038;-64
2022/05/13 08:27:04;;;;;;;10.95;6.25;;;;;;;22.93;59.88;98757.31;5002653;28;20033;-66
2022/05/13 08:29:29;;;;;;;10.23;6.32;;;;;;;22.92;59.11;98729.16;4969619;28;20514;-68
2022/05/13 08:31:55;;;;;;;10.52;6.45;;;;;;;23.03;59.22;98758.38;4919844;28;20505;-65
2022/05/13 08:34:20;;;;;;;10.07;6.75;;;;;;;23.25;58.52;98752.66;4973014;28;20034;-67
2022/05/13 08:36:46;;;;;;;10.65;6.20;;;;;;;23.29;57.80;98753.00;5001868;28;20033;-63
2022/05/13 08:39:11;;;;;;;10.40;6.30;;;;;;;23.48;57.77;98753.81;4964877;28;20026;-66
2022/05/13 08:42:09;;;;;;;10.25;7.05;;;;;;;23.51;56.77;98767.44;4969574;28;20057;-67
2022/05/13 08:44:35;;;;;;;10.30;5.80;;;;;;;24.05;55.63;98756.84;4981724;28;20030;-64
2022/05/13 08:47:14;;;;;;;11.45;6.30;;;;;;;24.01;55.35;98746.94;4999950;28;20031;-67
2022/05/13 08:49:52;;;;;;;12.15;6.13;;;;;;;24.20;54.74;98744.97;4988050;28;20030;-64
2022/05/13 08:55:29;;;;;;;9.70;6.13;;;;;;;24.60;53.71;98745.13;4973870;28;20044;-69
2022/05/13 08:57:57;;;;;;;10.68;6.28;;;;;;;25.01;52.31;98748.63;4998925;28;20026;-65
2022/05/13 09:00:29;;;;;;;8.65;6.18;;;;;;;25.20;52.35;98740.47;4952397;28;20069;-66
2022/05/13 09:03:10;;;;;;;12.65;6.82;;;;;;;24.85;52.42;98744.84;4969957;28;20484;-66
2022/05/13 09:06:00;;;;;;;13.38;6.57;;;;;;;24.90;52.01;98709.59;4991208;28;20026;-64
2022/05/13 09:08:26;;;;;;;9.25;5.63;;;;;;;24.98;52.39;98740.31;4989691;28;20059;-65
2022/05/13 09:11:30;;;;;;;9.88;6.28;;;;;;;25.04;52.19;98736.72;4984372;28;20166;-64
2022/05/13 09:14:01;;;;;;;10.30;5.82;;;;;;;25.00;52.18;98738.22;4993404;28;20386;-65
2022/05/13 09:16:39;;;;;;;9.77;6.13;;;;;;;25.08;52.59;98735.19;4964851;28;20027;-65
2022/05/13 09:19:04;;;;;;;10.57;6.15;;;;;;;24.99;52.03;98707.34;4985513;28;20037;-66
2022/05/13 09:21:30;;;;;;;8.68;5.70;;;;;;;25.45;50.55;98734.88;4963940;28;20031;-59
2022/05/13 09:23:55;;;;;;;11.75;6.07;;;;;;;25.47;50.62;98725.59;4980452;28;20030;-59
2022/05/13 09:26:24;;;;;;;9.90;5.75;;;;;;;25.13;51.81;98725.47;4999275;28;20512;-59
2022/05/13 09:29:10;;;;;;;9.77;5.80;;;;;;;25.16;51.26;98720.72;4979639;28;20789;-58
2022/05/13 09:31:39;;;;;;;9.70;5.85;;;;;;;24.65;53.31;98723.97;4984127;28;20096;-60
2022/05/13 09:34:34;;;;;;;10.52;6.32;;;;;;;24.29;54.60;98728.44;4995959;28;20109;-59
2022/05/13 09:37:07;;;;;;;10.63;5.95;;;;;;;23.66;55.92;98690.03;4964415;28;20054;-60
2022/05/13 09:39:38;;;;;;;11.40;5.85;;;;;;;23.87;57.22;98717.13;4980692;28;20034;-59
2022/05/13 09:42:22;;;;;;;10.13;5.93;;;;;;;23.50;57.90;98723.34;4965589;28;20057;-61
2022/05/13 09:44:48;;;;;;;7.80;5.75;;;;;;;23.36;57.70;98722.69;4980567;28;20382;-60
2022/05/13 09:47:24;;;;;;;9.55;6.32;;;;;;;23.15;58.75;98723.22;4965273;28;20062;-60
2022/05/13 09:49:50;;;;;;;12.15;5.82;;;;;;;23.28;58.98;98711.63;4968719;28;20026;-58
2022/05/13 09:52:28;;;;;;;9.57;5.40;;;;;;;23.22;58.26;98705.38;4967598;28;20034;-59
2022/05/13 09:54:55;;;;;;;9.65;5.63;;;;;;;23.21;58.82;98701.88;4969306;28;20081;-60
2022/05/13 09:57:32;;;;;;;11.57;6.28;;;;;;;23.13;58.79;98701.41;4968229;28;20019;-60
2022/05/13 10:00:06;;;;;;;12.15;6.32;;;;;;;22.90;58.27;98665.75;4964466;28;20030;-59
2022/05/13 10:02:37;;;;;;;9.18;5.47;;;;;;;23.21;58.31;98698.44;4964622;28;20537;-59
2022/05/13 10:05:24;;;;;;;10.15;6.05;;;;;;;23.25;57.97;98694.28;4961825;28;20056;-62
2022/05/13 10:07:49;;;;;;;10.25;5.50;;;;;;;23.11;56.64;98659.22;4970989;28;20430;-59
2022/05/13 10:16:12;;;;;;;8.07;5.43;;;;;;;23.37;56.07;98687.19;4974399;28;20551;-58
2022/05/13 10:18:58;;;;;;;8.23;5.35;;;;;;;23.34;55.83;98689.50;4968449;28;20039;-60
2022/05/13 10:21:29;;;;;;;9.65;5.85;;;;;;;23.33;55.20;98680.72;4960710;28;20557;-59
2022/05/13 10:24:21;;;;;;;9.00;5.68;;;;;;;23.36;54.62;98666.19;4991597;28;20022;-59
2022/05/13 10:26:49;;;;;;;10.27;5.13;;;;;;;23.46;55.17;98657.69;4991345;28;20038;-58
2022/05/13 10:29:38;;;;;;;8.80;5.50;;;;;;;23.51;55.09;98663.09;4947890;28;20030;-61
2022/05/13 10:32:20;;;;;;;9.35;5.60;;;;;;;23.40;55.68;98656.72;4991980;28;20764;-61
2022/05/13 10:34:49;;;;;;;10.07;5.78;;;;;;;23.54;56.69;98655.50;4975682;28;20066;-60
2022/05/13 10:37:15;;;;;;;8.45;5.30;;;;;;;23.58;55.80;98666.47;4959189;28;20122;-59
2022/05/13 10:39:44;;;;;;;10.65;5.15;;;;;;;23.65;55.50;98655.75;4975889;28;20678;-59
2022/05/13 10:42:16;;;;;;;11.65;5.35;;;;;;;23.67;54.25;98659.78;4994510;28;20060;-59
2022/05/13 10:44:51;;;;;;;7.60;4.72;;;;;;;23.56;52.86;98629.53;4973815;28;20093;-60
2022/05/13 10:47:21;;;;;;;9.93;4.75;;;;;;;23.80;54.37;98658.81;5000292;28;20026;-60
2022/05/13 10:49:46;;;;;;;7.72;4.45;;;;;;;23.71;51.87;98626.47;4971480;28;20410;-62
2022/05/13 10:52:35;;;;;;;11.40;5.00;;;;;;;23.96;51.57;98665.28;4973755;28;20041;-60
2022/05/13 10:55:36;;;;;;;6.32;3.95;;;;;;;23.95;49.68;98651.22;4978755;28;20047;-60
2022/05/13 10:58:21;;;;;;;7.70;3.92;;;;;;;23.89;49.66;98656.63;4983717;28;20042;-59
2022/05/13 11:00:56;;;;;;;7.70;4.10;;;;;;;23.96;50.45;98644.03;4932083;28;20345;-62
2022/05/13 11:03:32;;;;;;;8.40;4.22;;;;;;;23.79;50.46;98614.69;4978949;28;20022;-61
2022/05/13 11:06:28;;;;;;;8.57;5.05;;;;;;;24.14;51.73;98633.28;4991469;28;20030;-61
2022/05/13 11:09:06;;;;;;;10.43;4.93;;;;;;;23.98;51.81;98634.00;4996121;28;20045;-60
2022/05/13 11:11:38;;;;;;;8.48;4.63;;;;;;;24.09;51.07;98638.50;5000313;28;20547;-58
2022/05/13 11:14:26;;;;;;;12.50;5.32;;;;;;;24.21;50.84;98640.34;4970876;28;20084;-61
2022/05/13 11:16:57;;;;;;;10.95;4.57;;;;;;;24.28;51.76;98633.88;5005487;28;20038;-62
2022/05/13 11:19:34;;;;;;;7.80;4.25;;;;;;;24.33;51.30;98631.31;4971774;28;20038;-58
2022/05/13 11:22:15;;;;;;;8.25;4.43;;;;;;;24.33;49.94;98635.81;4972090;28;20112;-59
2022/05/13 11:27:44;;;;;;;7.38;4.30;;;;;;;24.51;51.19;98632.19;4998777;28;20814;-59
2022/05/13 11:30:14;;;;;;;9.18;4.55;;;;;;;24.47;52.01;98615.91;4978315;28;20696;-60
2022/05/13 11:32:45;;;;;;;7.43;4.55;;;;;;;24.48;51.40;98606.91;4988621;28;20035;-61
2022/05/13 11:35:30;;;;;;;8.13;4.43;;;;;;;24.69;49.31;98621.44;4973919;28;20237;-60
2022/05/13 11:38:00;;;;;;;7.95;4.55;;;;;;;24.64;49.78;98621.34;4980484;28;20119;-59
2022/05/13 11:40:31;;;;;;;9.13;4.70;;;;;;;24.54;50.12;98598.00;4976618;28;20030;-60
2022/05/13 11:43:18;;;;;;;9.30;4.28;;;;;;;24.60;49.33;98608.75;5001478;28;20497;-60
2022/05/13 11:46:02;;;;;;;6.57;4.45;;;;;;;24.69;48.86;98610.78;4973590;28;20568;-60
2022/05/13 11:48:36;;;;;;;7.78;4.32;;;;;;;24.55;49.37;98586.34;4971268;28;20142;-59
2022/05/13 11:51:19;;;;;;;7.10;4.00;;;;;;;24.70;48.38;98609.75;4966324;28;20066;-61
2022/05/13 11:53:46;;;;;;;8.43;4.30;;;;;;;24.78;48.75;98595.28;4982242;28;20041;-58
2022/05/13 11:56:26;;;;;;;7.13;4.22;;;;;;;24.82;48.33;98599.06;4970762;28;20547;-58
2022/05/13 11:58:58;;;;;;;7.43;4.03;;;;;;;24.75;48.64;98569.97;4970182;28;20608;-59
2022/05/13 12:04:13;;;;;;;8.63;3.97;;;;;;;25.06;46.06;98602.44;4969586;28;20346;-59
2022/05/13 12:06:51;;;;;;;9.27;4.40;;;;;;;24.89;47.16;98588.31;4969782;28;20031;-59
2022/05/13 12:09:40;;;;;;;8.00;4.07;;;;;;;24.90;47.40;98560.69;4981769;28;20624;-58
2022/05/13 12:12:15;;;;;;;6.82;3.88;;;;;;;25.07;47.74;98584.63;4966112;28;20575;-61